Airmont, New York
Current Conditions -  °F | °C
As of 1:51 PM on Thursday 23 Oct 2014 (Local Time) from KTEB Reporting Station
Light Rain Light Rain  
Wind Chill: 52°   Ceiling: 3800
Heat Index: 52°   Visibility: 10mi
Dew Point: 47°   Wind: 10mph
Humidity: 83%   Direction: 340°NNW
Pressure: 29.7"   Gusts: NA
Location:  41.1112°N, 74.0777°W
Report Text: KTEB 231751Z 34009KT 10SM -RA FEW016 OVC038 11/08 A2970 RMK AO2 SLP058 P0001 60031 T01110083 10117 20106 58005
Loading
Personal Weather Stations






























Interactive Weather Map
Tropical Storm Tracking
New forecast layout! Learn more

10-Day Weather Forecast

Advertisements
Track Severe Weather on mobile